sensor_id;sensor_type;location;lat;lon;timestamp;P1;durP1;ratioP1;P2;durP2;ratioP2
36283;SDS011;56085;48.910;9.478;2023-06-24T00:01:03;8.13;;;3.95;;
36283;SDS011;56085;48.910;9.478;2023-06-24T00:03:28;5.25;;;3.58;;
36283;SDS011;56085;48.910;9.478;2023-06-24T00:05:54;6.00;;;3.33;;
36283;SDS011;56085;48.910;9.478;2023-06-24T00:08:21;5.22;;;3.80;;
36283;SDS011;56085;48.910;9.478;2023-06-24T00:10:47;6.03;;;3.70;;
36283;SDS011;56085;48.910;9.478;2023-06-24T00:13:13;6.53;;;3.55;;
36283;SDS011;56085;48.910;9.478;2023-06-24T00:15:40;6.03;;;3.70;;
36283;SDS011;56085;48.910;9.478;2023-06-24T00:18:08;6.10;;;3.60;;
36283;SDS011;56085;48.910;9.478;2023-06-24T00:20:36;4.75;;;3.42;;
36283;SDS011;56085;48.910;9.478;2023-06-24T00:23:02;5.45;;;3.33;;
36283;SDS011;56085;48.910;9.478;2023-06-24T00:25:27;6.22;;;4.00;;
36283;SDS011;56085;48.910;9.478;2023-06-24T00:27:53;6.10;;;3.67;;
36283;SDS011;56085;48.910;9.478;2023-06-24T00:30:18;5.28;;;3.25;;
36283;SDS011;56085;48.910;9.478;2023-06-24T00:32:44;6.30;;;4.10;;
36283;SDS011;56085;48.910;9.478;2023-06-24T00:35:09;5.18;;;3.15;;
36283;SDS011;56085;48.910;9.478;2023-06-24T00:37:37;5.82;;;3.92;;
36283;SDS011;56085;48.910;9.478;2023-06-24T00:40:02;5.63;;;4.45;;
36283;SDS011;56085;48.910;9.478;2023-06-24T00:42:28;5.35;;;3.50;;
36283;SDS011;56085;48.910;9.478;2023-06-24T00:44:54;7.40;;;3.75;;
36283;SDS011;56085;48.910;9.478;2023-06-24T00:47:19;6.28;;;4.05;;
36283;SDS011;56085;48.910;9.478;2023-06-24T00:49:45;6.10;;;3.88;;
36283;SDS011;56085;48.910;9.478;2023-06-24T00:52:10;5.57;;;3.78;;
36283;SDS011;56085;48.910;9.478;2023-06-24T00:54:40;4.68;;;3.33;;
36283;SDS011;56085;48.910;9.478;2023-06-24T00:57:06;6.05;;;3.65;;
36283;SDS011;56085;48.910;9.478;2023-06-24T00:59:31;5.82;;;3.60;;
36283;SDS011;56085;48.910;9.478;2023-06-24T01:01:57;5.72;;;3.92;;
36283;SDS011;56085;48.910;9.478;2023-06-24T01:04:29;7.85;;;3.90;;
36283;SDS011;56085;48.910;9.478;2023-06-24T01:06:56;6.60;;;4.38;;
36283;SDS011;56085;48.910;9.478;2023-06-24T01:09:22;6.32;;;3.67;;
36283;SDS011;56085;48.910;9.478;2023-06-24T01:11:48;5.28;;;3.58;;
36283;SDS011;56085;48.910;9.478;2023-06-24T01:14:13;5.57;;;3.60;;
36283;SDS011;56085;48.910;9.478;2023-06-24T01:16:50;6.53;;;3.70;;
36283;SDS011;56085;48.910;9.478;2023-06-24T01:19:42;5.57;;;3.72;;
36283;SDS011;56085;48.910;9.478;2023-06-24T01:33:45;5.55;;;3.60;;
36283;SDS011;56085;48.910;9.478;2023-06-24T01:36:14;4.88;;;3.33;;
36283;SDS011;56085;48.910;9.478;2023-06-24T01:38:43;5.15;;;3.78;;
36283;SDS011;56085;48.910;9.478;2023-06-24T01:41:16;6.03;;;4.45;;
36283;SDS011;56085;48.910;9.478;2023-06-24T01:43:47;5.63;;;3.70;;
36283;SDS011;56085;48.910;9.478;2023-06-24T01:46:16;6.05;;;3.92;;
36283;SDS011;56085;48.910;9.478;2023-06-24T01:48:45;6.13;;;3.53;;
36283;SDS011;56085;48.910;9.478;2023-06-24T01:51:13;8.50;;;4.10;;
36283;SDS011;56085;48.910;9.478;2023-06-24T01:53:44;5.10;;;3.30;;
36283;SDS011;56085;48.910;9.478;2023-06-24T01:56:15;6.18;;;3.95;;
36283;SDS011;56085;48.910;9.478;2023-06-24T01:58:41;7.30;;;4.60;;
36283;SDS011;56085;48.910;9.478;2023-06-24T02:01:08;5.90;;;4.22;;
36283;SDS011;56085;48.910;9.478;2023-06-24T02:03:34;8.15;;;4.47;;
36283;SDS011;56085;48.910;9.478;2023-06-24T02:06:01;6.45;;;4.35;;
36283;SDS011;56085;48.910;9.478;2023-06-24T02:08:32;6.07;;;4.20;;
36283;SDS011;56085;48.910;9.478;2023-06-24T02:10:59;5.30;;;3.90;;
36283;SDS011;56085;48.910;9.478;2023-06-24T02:13:26;6.78;;;4.40;;
36283;SDS011;56085;48.910;9.478;2023-06-24T02:15:51;5.38;;;3.72;;
36283;SDS011;56085;48.910;9.478;2023-06-24T02:18:17;8.10;;;3.95;;
36283;SDS011;56085;48.910;9.478;2023-06-24T02:20:45;5.40;;;3.97;;
36283;SDS011;56085;48.910;9.478;2023-06-24T02:23:13;5.93;;;4.18;;
36283;SDS011;56085;48.910;9.478;2023-06-24T02:25:39;8.63;;;4.18;;
36283;SDS011;56085;48.910;9.478;2023-06-24T02:28:05;5.65;;;4.18;;
36283;SDS011;56085;48.910;9.478;2023-06-24T02:30:32;6.30;;;4.13;;
36283;SDS011;56085;48.910;9.478;2023-06-24T02:32:59;7.18;;;4.35;;
36283;SDS011;56085;48.910;9.478;2023-06-24T02:35:25;7.22;;;4.20;;
36283;SDS011;56085;48.910;9.478;2023-06-24T02:37:50;6.22;;;4.13;;
36283;SDS011;56085;48.910;9.478;2023-06-24T02:40:16;6.93;;;4.57;;
36283;SDS011;56085;48.910;9.478;2023-06-24T02:42:41;6.07;;;4.10;;
36283;SDS011;56085;48.910;9.478;2023-06-24T02:45:06;7.28;;;4.75;;
36283;SDS011;56085;48.910;9.478;2023-06-24T02:47:33;5.88;;;4.15;;
36283;SDS011;56085;48.910;9.478;2023-06-24T02:50:00;7.07;;;4.75;;
36283;SDS011;56085;48.910;9.478;2023-06-24T02:52:27;7.00;;;4.18;;
36283;SDS011;56085;48.910;9.478;2023-06-24T02:54:54;7.05;;;4.78;;
36283;SDS011;56085;48.910;9.478;2023-06-24T02:57:21;5.80;;;4.20;;
36283;SDS011;56085;48.910;9.478;2023-06-24T02:59:48;7.18;;;4.45;;
36283;SDS011;56085;48.910;9.478;2023-06-24T03:02:14;6.10;;;3.80;;
36283;SDS011;56085;48.910;9.478;2023-06-24T03:04:41;7.05;;;4.07;;
36283;SDS011;56085;48.910;9.478;2023-06-24T03:07:07;6.85;;;4.28;;
36283;SDS011;56085;48.910;9.478;2023-06-24T03:09:35;7.55;;;4.50;;
36283;SDS011;56085;48.910;9.478;2023-06-24T03:12:04;6.85;;;4.40;;
36283;SDS011;56085;48.910;9.478;2023-06-24T03:14:30;5.15;;;3.72;;
36283;SDS011;56085;48.910;9.478;2023-06-24T03:16:56;5.93;;;3.75;;
36283;SDS011;56085;48.910;9.478;2023-06-24T03:19:22;5.50;;;4.03;;
36283;SDS011;56085;48.910;9.478;2023-06-24T03:21:47;6.82;;;4.05;;
36283;SDS011;56085;48.910;9.478;2023-06-24T03:24:12;6.28;;;4.13;;
36283;SDS011;56085;48.910;9.478;2023-06-24T03:26:38;8.32;;;4.63;;
36283;SDS011;56085;48.910;9.478;2023-06-24T03:29:06;5.68;;;4.10;;
36283;SDS011;56085;48.910;9.478;2023-06-24T03:31:35;5.80;;;4.22;;
36283;SDS011;56085;48.910;9.478;2023-06-24T03:34:00;6.28;;;4.30;;
36283;SDS011;56085;48.910;9.478;2023-06-24T03:36:26;7.90;;;4.35;;
36283;SDS011;56085;48.910;9.478;2023-06-24T03:38:51;6.20;;;4.35;;
36283;SDS011;56085;48.910;9.478;2023-06-24T03:41:17;6.45;;;4.20;;
36283;SDS011;56085;48.910;9.478;2023-06-24T03:43:42;8.60;;;5.00;;
36283;SDS011;56085;48.910;9.478;2023-06-24T03:46:09;6.78;;;4.00;;
36283;SDS011;56085;48.910;9.478;2023-06-24T03:48:35;7.28;;;4.00;;
36283;SDS011;56085;48.910;9.478;2023-06-24T03:51:00;6.20;;;4.20;;
36283;SDS011;56085;48.910;9.478;2023-06-24T03:53:25;6.82;;;4.32;;
36283;SDS011;56085;48.910;9.478;2023-06-24T03:55:51;6.13;;;4.40;;
36283;SDS011;56085;48.910;9.478;2023-06-24T03:58:16;5.75;;;4.35;;
36283;SDS011;56085;48.910;9.478;2023-06-24T04:00:41;6.15;;;4.15;;
36283;SDS011;56085;48.910;9.478;2023-06-24T04:03:09;5.38;;;4.10;;
36283;SDS011;56085;48.910;9.478;2023-06-24T04:05:34;6.60;;;3.97;;
36283;SDS011;56085;48.910;9.478;2023-06-24T04:08:00;6.63;;;4.60;;
36283;SDS011;56085;48.910;9.478;2023-06-24T04:10:25;5.75;;;3.80;;
36283;SDS011;56085;48.910;9.478;2023-06-24T04:12:51;6.85;;;4.38;;
36283;SDS011;56085;48.910;9.478;2023-06-24T04:15:16;7.07;;;4.45;;
36283;SDS011;56085;48.910;9.478;2023-06-24T04:17:42;7.40;;;4.00;;
36283;SDS011;56085;48.910;9.478;2023-06-24T04:20:07;7.57;;;5.03;;
36283;SDS011;56085;48.910;9.478;2023-06-24T04:22:36;6.68;;;4.15;;
36283;SDS011;56085;48.910;9.478;2023-06-24T04:25:03;8.27;;;4.70;;
36283;SDS011;56085;48.910;9.478;2023-06-24T04:27:30;7.05;;;4.03;;
36283;SDS011;56085;48.910;9.478;2023-06-24T04:29:56;7.13;;;4.32;;
36283;SDS011;56085;48.910;9.478;2023-06-24T04:32:21;7.22;;;4.18;;
36283;SDS011;56085;48.910;9.478;2023-06-24T04:34:46;5.60;;;4.15;;
36283;SDS011;56085;48.910;9.478;2023-06-24T04:37:12;6.80;;;4.35;;
36283;SDS011;56085;48.910;9.478;2023-06-24T04:39:37;7.32;;;4.57;;
36283;SDS011;56085;48.910;9.478;2023-06-24T04:42:03;5.65;;;3.92;;
36283;SDS011;56085;48.910;9.478;2023-06-24T04:44:29;6.30;;;3.53;;
36283;SDS011;56085;48.910;9.478;2023-06-24T04:46:54;6.07;;;4.20;;
36283;SDS011;56085;48.910;9.478;2023-06-24T04:49:19;5.60;;;3.80;;
36283;SDS011;56085;48.910;9.478;2023-06-24T04:51:44;7.30;;;4.78;;
36283;SDS011;56085;48.910;9.478;2023-06-24T04:54:10;7.70;;;4.28;;
36283;SDS011;56085;48.910;9.478;2023-06-24T04:56:37;7.47;;;4.47;;
36283;SDS011;56085;48.910;9.478;2023-06-24T04:59:02;8.18;;;4.28;;
36283;SDS011;56085;48.910;9.478;2023-06-24T05:01:28;5.60;;;3.88;;
36283;SDS011;56085;48.910;9.478;2023-06-24T05:03:53;6.63;;;4.28;;
36283;SDS011;56085;48.910;9.478;2023-06-24T05:06:18;7.07;;;4.72;;
36283;SDS011;56085;48.910;9.478;2023-06-24T05:08:44;8.52;;;5.20;;
36283;SDS011;56085;48.910;9.478;2023-06-24T05:11:09;7.45;;;4.40;;
36283;SDS011;56085;48.910;9.478;2023-06-24T05:13:34;5.75;;;4.07;;
36283;SDS011;56085;48.910;9.478;2023-06-24T05:15:59;6.18;;;3.97;;
36283;SDS011;56085;48.910;9.478;2023-06-24T05:18:25;5.88;;;3.90;;
36283;SDS011;56085;48.910;9.478;2023-06-24T05:20:50;6.95;;;4.63;;
36283;SDS011;56085;48.910;9.478;2023-06-24T05:23:15;8.10;;;4.30;;
36283;SDS011;56085;48.910;9.478;2023-06-24T05:25:41;5.13;;;3.92;;
36283;SDS011;56085;48.910;9.478;2023-06-24T05:28:06;7.70;;;4.88;;
36283;SDS011;56085;48.910;9.478;2023-06-24T05:30:31;6.47;;;4.30;;
36283;SDS011;56085;48.910;9.478;2023-06-24T05:32:56;6.65;;;4.55;;
36283;SDS011;56085;48.910;9.478;2023-06-24T05:35:22;6.75;;;4.60;;
36283;SDS011;56085;48.910;9.478;2023-06-24T05:37:47;5.07;;;3.53;;
36283;SDS011;56085;48.910;9.478;2023-06-24T05:40:12;6.50;;;3.88;;
36283;SDS011;56085;48.910;9.478;2023-06-24T05:42:38;7.30;;;3.95;;
36283;SDS011;56085;48.910;9.478;2023-06-24T05:45:04;7.90;;;4.03;;
36283;SDS011;56085;48.910;9.478;2023-06-24T05:47:31;8.43;;;4.72;;
36283;SDS011;56085;48.910;9.478;2023-06-24T05:49:56;6.72;;;4.32;;
36283;SDS011;56085;48.910;9.478;2023-06-24T05:52:22;7.80;;;4.72;;
36283;SDS011;56085;48.910;9.478;2023-06-24T05:54:47;5.53;;;3.85;;
36283;SDS011;56085;48.910;9.478;2023-06-24T05:57:12;5.78;;;3.67;;
36283;SDS011;56085;48.910;9.478;2023-06-24T05:59:38;7.70;;;3.75;;
36283;SDS011;56085;48.910;9.478;2023-06-24T06:02:03;6.53;;;3.88;;
36283;SDS011;56085;48.910;9.478;2023-06-24T06:04:29;5.10;;;3.53;;
36283;SDS011;56085;48.910;9.478;2023-06-24T06:06:54;6.10;;;3.72;;
36283;SDS011;56085;48.910;9.478;2023-06-24T06:09:20;5.25;;;3.60;;
36283;SDS011;56085;48.910;9.478;2023-06-24T06:11:46;5.10;;;3.42;;
36283;SDS011;56085;48.910;9.478;2023-06-24T06:14:12;5.95;;;3.60;;
36283;SDS011;56085;48.910;9.478;2023-06-24T06:16:38;5.20;;;3.35;;
36283;SDS011;56085;48.910;9.478;2023-06-24T06:19:03;6.38;;;4.30;;
36283;SDS011;56085;48.910;9.478;2023-06-24T06:21:28;6.85;;;3.67;;
36283;SDS011;56085;48.910;9.478;2023-06-24T06:23:54;4.60;;;3.25;;
36283;SDS011;56085;48.910;9.478;2023-06-24T06:26:19;4.50;;;3.42;;
36283;SDS011;56085;48.910;9.478;2023-06-24T06:28:44;4.72;;;3.22;;
36283;SDS011;56085;48.910;9.478;2023-06-24T06:31:12;5.13;;;3.42;;
36283;SDS011;56085;48.910;9.478;2023-06-24T06:33:37;4.47;;;3.10;;
36283;SDS011;56085;48.910;9.478;2023-06-24T06:36:02;7.20;;;3.75;;
36283;SDS011;56085;48.910;9.478;2023-06-24T06:38:28;6.10;;;3.65;;
36283;SDS011;56085;48.910;9.478;2023-06-24T06:40:53;6.35;;;3.60;;
36283;SDS011;56085;48.910;9.478;2023-06-24T06:43:18;6.07;;;3.40;;
36283;SDS011;56085;48.910;9.478;2023-06-24T06:45:43;6.93;;;3.63;;
36283;SDS011;56085;48.910;9.478;2023-06-24T06:48:09;5.95;;;3.72;;
36283;SDS011;56085;48.910;9.478;2023-06-24T06:50:34;5.85;;;3.97;;
36283;SDS011;56085;48.910;9.478;2023-06-24T06:53:00;5.35;;;3.60;;
36283;SDS011;56085;48.910;9.478;2023-06-24T06:55:26;4.28;;;3.40;;
36283;SDS011;56085;48.910;9.478;2023-06-24T06:57:52;4.43;;;3.08;;
36283;SDS011;56085;48.910;9.478;2023-06-24T07:00:17;6.38;;;3.95;;
36283;SDS011;56085;48.910;9.478;2023-06-24T07:02:43;5.95;;;3.78;;
36283;SDS011;56085;48.910;9.478;2023-06-24T07:05:08;5.50;;;3.50;;
36283;SDS011;56085;48.910;9.478;2023-06-24T07:07:36;5.20;;;3.50;;
36283;SDS011;56085;48.910;9.478;2023-06-24T07:10:02;5.55;;;3.33;;
36283;SDS011;56085;48.910;9.478;2023-06-24T07:12:27;4.95;;;3.28;;
36283;SDS011;56085;48.910;9.478;2023-06-24T07:14:53;7.93;;;3.38;;
36283;SDS011;56085;48.910;9.478;2023-06-24T07:17:18;6.38;;;3.58;;
36283;SDS011;56085;48.910;9.478;2023-06-24T07:19:43;6.10;;;3.58;;
36283;SDS011;56085;48.910;9.478;2023-06-24T07:22:08;5.88;;;3.63;;
36283;SDS011;56085;48.910;9.478;2023-06-24T07:24:34;5.03;;;3.45;;
36283;SDS011;56085;48.910;9.478;2023-06-24T07:26:59;7.72;;;3.67;;
36283;SDS011;56085;48.910;9.478;2023-06-24T07:29:24;5.03;;;3.75;;
36283;SDS011;56085;48.910;9.478;2023-06-24T07:31:50;6.10;;;4.05;;
36283;SDS011;56085;48.910;9.478;2023-06-24T07:34:15;6.97;;;4.10;;
36283;SDS011;56085;48.910;9.478;2023-06-24T07:36:40;6.18;;;3.63;;
36283;SDS011;56085;48.910;9.478;2023-06-24T07:39:05;6.40;;;4.10;;
36283;SDS011;56085;48.910;9.478;2023-06-24T07:41:32;5.55;;;3.50;;
36283;SDS011;56085;48.910;9.478;2023-06-24T07:43:57;5.80;;;3.20;;
36283;SDS011;56085;48.910;9.478;2023-06-24T07:46:23;4.90;;;3.05;;
36283;SDS011;56085;48.910;9.478;2023-06-24T07:48:48;5.97;;;3.35;;
36283;SDS011;56085;48.910;9.478;2023-06-24T07:51:13;4.88;;;3.15;;
36283;SDS011;56085;48.910;9.478;2023-06-24T07:53:39;6.28;;;3.95;;
36283;SDS011;56085;48.910;9.478;2023-06-24T07:56:04;6.20;;;3.50;;
36283;SDS011;56085;48.910;9.478;2023-06-24T07:58:29;8.48;;;3.38;;
36283;SDS011;56085;48.910;9.478;2023-06-24T08:00:54;4.53;;;3.35;;
36283;SDS011;56085;48.910;9.478;2023-06-24T08:03:20;6.90;;;3.83;;
36283;SDS011;56085;48.910;9.478;2023-06-24T08:05:46;5.43;;;3.47;;
36283;SDS011;56085;48.910;9.478;2023-06-24T08:08:11;5.65;;;3.60;;
36283;SDS011;56085;48.910;9.478;2023-06-24T08:10:37;5.28;;;3.80;;
36283;SDS011;56085;48.910;9.478;2023-06-24T08:13:02;6.60;;;3.70;;
36283;SDS011;56085;48.910;9.478;2023-06-24T08:15:27;6.60;;;4.05;;
36283;SDS011;56085;48.910;9.478;2023-06-24T08:17:53;4.50;;;3.08;;
36283;SDS011;56085;48.910;9.478;2023-06-24T08:20:21;5.47;;;3.42;;
36283;SDS011;56085;48.910;9.478;2023-06-24T08:22:47;6.40;;;3.67;;
36283;SDS011;56085;48.910;9.478;2023-06-24T08:25:12;6.15;;;3.22;;
36283;SDS011;56085;48.910;9.478;2023-06-24T08:27:38;5.45;;;3.65;;
36283;SDS011;56085;48.910;9.478;2023-06-24T08:30:06;5.25;;;3.65;;
36283;SDS011;56085;48.910;9.478;2023-06-24T08:32:32;8.60;;;3.63;;
36283;SDS011;56085;48.910;9.478;2023-06-24T08:34:58;5.22;;;3.45;;
36283;SDS011;56085;48.910;9.478;2023-06-24T08:37:23;4.90;;;3.45;;
36283;SDS011;56085;48.910;9.478;2023-06-24T08:39:48;5.53;;;3.90;;
36283;SDS011;56085;48.910;9.478;2023-06-24T08:42:14;5.68;;;3.28;;
36283;SDS011;56085;48.910;9.478;2023-06-24T08:44:39;5.10;;;3.58;;
36283;SDS011;56085;48.910;9.478;2023-06-24T08:47:04;5.43;;;3.13;;
36283;SDS011;56085;48.910;9.478;2023-06-24T08:49:30;5.50;;;3.78;;
36283;SDS011;56085;48.910;9.478;2023-06-24T08:52:03;5.07;;;3.08;;
36283;SDS011;56085;48.910;9.478;2023-06-24T08:54:34;6.47;;;3.25;;
36283;SDS011;56085;48.910;9.478;2023-06-24T08:57:01;5.13;;;3.00;;
36283;SDS011;56085;48.910;9.478;2023-06-24T08:59:30;5.10;;;3.28;;
36283;SDS011;56085;48.910;9.478;2023-06-24T09:01:56;5.50;;;3.15;;
36283;SDS011;56085;48.910;9.478;2023-06-24T09:04:21;4.33;;;2.90;;
36283;SDS011;56085;48.910;9.478;2023-06-24T09:06:46;4.22;;;2.75;;
36283;SDS011;56085;48.910;9.478;2023-06-24T09:09:18;6.00;;;2.72;;
36283;SDS011;56085;48.910;9.478;2023-06-24T09:11:54;4.95;;;2.90;;
36283;SDS011;56085;48.910;9.478;2023-06-24T09:14:22;3.95;;;2.42;;
36283;SDS011;56085;48.910;9.478;2023-06-24T09:16:56;3.75;;;2.72;;
36283;SDS011;56085;48.910;9.478;2023-06-24T09:19:31;4.28;;;2.53;;
36283;SDS011;56085;48.910;9.478;2023-06-24T09:22:05;4.28;;;2.67;;
36283;SDS011;56085;48.910;9.478;2023-06-24T09:24:35;4.05;;;2.42;;
36283;SDS011;56085;48.910;9.478;2023-06-24T09:27:02;4.68;;;2.67;;
36283;SDS011;56085;48.910;9.478;2023-06-24T09:29:31;3.72;;;2.50;;
36283;SDS011;56085;48.910;9.478;2023-06-24T09:31:57;5.68;;;3.13;;
36283;SDS011;56085;48.910;9.478;2023-06-24T09:34:25;5.03;;;2.60;;
36283;SDS011;56085;48.910;9.478;2023-06-24T09:36:54;4.85;;;2.50;;
36283;SDS011;56085;48.910;9.478;2023-06-24T09:39:21;4.55;;;2.78;;
36283;SDS011;56085;48.910;9.478;2023-06-24T09:41:50;5.55;;;3.10;;
36283;SDS011;56085;48.910;9.478;2023-06-24T09:44:16;3.70;;;2.40;;
36283;SDS011;56085;48.910;9.478;2023-06-24T09:46:44;4.97;;;2.88;;
36283;SDS011;56085;48.910;9.478;2023-06-24T09:49:09;4.15;;;2.72;;
36283;SDS011;56085;48.910;9.478;2023-06-24T09:51:38;4.27;;;2.80;;
36283;SDS011;56085;48.910;9.478;2023-06-24T09:54:05;3.22;;;2.58;;
36283;SDS011;56085;48.910;9.478;2023-06-24T09:56:32;3.55;;;2.47;;
36283;SDS011;56085;48.910;9.478;2023-06-24T09:59:01;5.28;;;2.90;;
36283;SDS011;56085;48.910;9.478;2023-06-24T10:01:28;4.00;;;2.70;;
36283;SDS011;56085;48.910;9.478;2023-06-24T10:03:55;5.53;;;2.67;;
36283;SDS011;56085;48.910;9.478;2023-06-24T10:06:20;4.28;;;2.63;;
36283;SDS011;56085;48.910;9.478;2023-06-24T10:08:46;4.97;;;3.10;;
36283;SDS011;56085;48.910;9.478;2023-06-24T10:11:11;6.18;;;3.17;;
36283;SDS011;56085;48.910;9.478;2023-06-24T10:13:37;5.05;;;2.95;;
36283;SDS011;56085;48.910;9.478;2023-06-24T10:16:02;3.42;;;2.20;;
36283;SDS011;56085;48.910;9.478;2023-06-24T10:20:56;4.75;;;3.28;;
36283;SDS011;56085;48.910;9.478;2023-06-24T10:23:28;4.68;;;2.95;;
36283;SDS011;56085;48.910;9.478;2023-06-24T10:25:58;8.27;;;3.25;;
36283;SDS011;56085;48.910;9.478;2023-06-24T10:28:24;4.40;;;3.00;;
36283;SDS011;56085;48.910;9.478;2023-06-24T10:30:56;3.97;;;2.88;;
36283;SDS011;56085;48.910;9.478;2023-06-24T10:35:48;3.47;;;2.40;;
36283;SDS011;56085;48.910;9.478;2023-06-24T10:38:13;3.25;;;2.15;;
36283;SDS011;56085;48.910;9.478;2023-06-24T10:40:39;3.45;;;2.38;;
36283;SDS011;56085;48.910;9.478;2023-06-24T10:45:51;4.10;;;2.38;;
36283;SDS011;56085;48.910;9.478;2023-06-24T10:48:17;4.15;;;2.30;;
36283;SDS011;56085;48.910;9.478;2023-06-24T10:50:45;3.08;;;2.00;;
36283;SDS011;56085;48.910;9.478;2023-06-24T10:53:12;3.35;;;2.28;;
36283;SDS011;56085;48.910;9.478;2023-06-24T10:55:38;4.70;;;2.50;;
36283;SDS011;56085;48.910;9.478;2023-06-24T10:58:08;4.28;;;2.50;;
36283;SDS011;56085;48.910;9.478;2023-06-24T11:00:37;3.13;;;2.03;;
36283;SDS011;56085;48.910;9.478;2023-06-24T11:03:10;3.70;;;2.50;;
36283;SDS011;56085;48.910;9.478;2023-06-24T11:05:40;4.13;;;2.40;;
36283;SDS011;56085;48.910;9.478;2023-06-24T11:08:14;3.55;;;2.10;;
36283;SDS011;56085;48.910;9.478;2023-06-24T11:10:42;3.40;;;2.40;;
36283;SDS011;56085;48.910;9.478;2023-06-24T11:13:12;3.15;;;2.20;;
36283;SDS011;56085;48.910;9.478;2023-06-24T11:15:38;3.75;;;2.15;;
36283;SDS011;56085;48.910;9.478;2023-06-24T11:18:07;4.38;;;2.20;;
36283;SDS011;56085;48.910;9.478;2023-06-24T11:20:35;2.97;;;1.92;;
36283;SDS011;56085;48.910;9.478;2023-06-24T11:23:01;4.13;;;2.30;;
36283;SDS011;56085;48.910;9.478;2023-06-24T11:25:26;4.13;;;2.10;;
36283;SDS011;56085;48.910;9.478;2023-06-24T11:27:52;4.00;;;2.50;;
36283;SDS011;56085;48.910;9.478;2023-06-24T11:30:20;3.25;;;2.17;;
36283;SDS011;56085;48.910;9.478;2023-06-24T11:32:45;4.53;;;2.60;;
36283;SDS011;56085;48.910;9.478;2023-06-24T11:35:13;4.53;;;2.65;;
36283;SDS011;56085;48.910;9.478;2023-06-24T11:37:45;5.13;;;2.40;;
36283;SDS011;56085;48.910;9.478;2023-06-24T11:40:12;3.55;;;2.03;;
36283;SDS011;56085;48.910;9.478;2023-06-24T11:42:39;3.28;;;2.35;;
36283;SDS011;56085;48.910;9.478;2023-06-24T11:45:09;3.17;;;2.15;;
36283;SDS011;56085;48.910;9.478;2023-06-24T11:47:37;3.38;;;2.47;;
36283;SDS011;56085;48.910;9.478;2023-06-24T11:50:04;3.38;;;2.20;;
36283;SDS011;56085;48.910;9.478;2023-06-24T11:52:44;3.83;;;2.38;;
36283;SDS011;56085;48.910;9.478;2023-06-24T11:57:58;5.30;;;2.55;;
36283;SDS011;56085;48.910;9.478;2023-06-24T12:00:26;4.35;;;2.75;;
36283;SDS011;56085;48.910;9.478;2023-06-24T12:03:00;4.13;;;2.50;;
36283;SDS011;56085;48.910;9.478;2023-06-24T12:05:29;4.03;;;2.60;;
36283;SDS011;56085;48.910;9.478;2023-06-24T12:08:14;2.90;;;2.05;;
36283;SDS011;56085;48.910;9.478;2023-06-24T12:10:40;4.38;;;2.47;;
36283;SDS011;56085;48.910;9.478;2023-06-24T12:13:05;3.65;;;2.45;;
36283;SDS011;56085;48.910;9.478;2023-06-24T12:15:31;3.10;;;2.17;;
36283;SDS011;56085;48.910;9.478;2023-06-24T12:17:57;3.88;;;2.38;;
36283;SDS011;56085;48.910;9.478;2023-06-24T12:20:23;3.83;;;2.53;;
36283;SDS011;56085;48.910;9.478;2023-06-24T12:22:50;3.97;;;2.50;;
36283;SDS011;56085;48.910;9.478;2023-06-24T12:25:16;3.35;;;2.20;;
36283;SDS011;56085;48.910;9.478;2023-06-24T12:27:42;3.05;;;2.33;;
36283;SDS011;56085;48.910;9.478;2023-06-24T12:30:08;3.22;;;2.50;;
36283;SDS011;56085;48.910;9.478;2023-06-24T12:32:35;3.05;;;2.10;;
36283;SDS011;56085;48.910;9.478;2023-06-24T12:35:00;6.18;;;2.20;;
36283;SDS011;56085;48.910;9.478;2023-06-24T12:37:29;4.22;;;2.20;;
36283;SDS011;56085;48.910;9.478;2023-06-24T12:39:58;4.18;;;2.70;;
36283;SDS011;56085;48.910;9.478;2023-06-24T12:42:25;3.80;;;2.30;;
36283;SDS011;56085;48.910;9.478;2023-06-24T12:44:50;3.38;;;2.30;;
36283;SDS011;56085;48.910;9.478;2023-06-24T12:47:16;4.28;;;2.10;;
36283;SDS011;56085;48.910;9.478;2023-06-24T12:49:41;3.67;;;2.30;;
36283;SDS011;56085;48.910;9.478;2023-06-24T12:52:06;3.60;;;2.27;;
36283;SDS011;56085;48.910;9.478;2023-06-24T12:54:32;3.78;;;2.22;;
36283;SDS011;56085;48.910;9.478;2023-06-24T12:56:57;6.32;;;2.47;;
36283;SDS011;56085;48.910;9.478;2023-06-24T12:59:22;3.47;;;2.23;;
36283;SDS011;56085;48.910;9.478;2023-06-24T13:01:48;3.17;;;2.05;;
36283;SDS011;56085;48.910;9.478;2023-06-24T13:04:13;3.63;;;2.05;;
36283;SDS011;56085;48.910;9.478;2023-06-24T13:06:38;3.53;;;2.00;;
36283;SDS011;56085;48.910;9.478;2023-06-24T13:09:05;3.28;;;2.05;;
36283;SDS011;56085;48.910;9.478;2023-06-24T13:11:30;3.53;;;2.40;;
36283;SDS011;56085;48.910;9.478;2023-06-24T13:13:56;2.33;;;1.70;;
36283;SDS011;56085;48.910;9.478;2023-06-24T13:16:21;2.78;;;1.95;;
36283;SDS011;56085;48.910;9.478;2023-06-24T13:18:46;2.90;;;1.98;;
36283;SDS011;56085;48.910;9.478;2023-06-24T13:21:12;2.78;;;2.00;;
36283;SDS011;56085;48.910;9.478;2023-06-24T13:23:37;3.03;;;2.20;;
36283;SDS011;56085;48.910;9.478;2023-06-24T13:26:03;2.95;;;1.95;;
36283;SDS011;56085;48.910;9.478;2023-06-24T13:28:29;3.72;;;2.13;;
36283;SDS011;56085;48.910;9.478;2023-06-24T13:30:54;3.90;;;2.40;;
36283;SDS011;56085;48.910;9.478;2023-06-24T13:33:20;3.10;;;2.20;;
36283;SDS011;56085;48.910;9.478;2023-06-24T13:35:45;3.17;;;2.00;;
36283;SDS011;56085;48.910;9.478;2023-06-24T13:38:11;3.83;;;2.08;;
36283;SDS011;56085;48.910;9.478;2023-06-24T13:40:37;2.88;;;1.85;;
36283;SDS011;56085;48.910;9.478;2023-06-24T13:43:02;3.70;;;2.35;;
36283;SDS011;56085;48.910;9.478;2023-06-24T13:45:28;3.17;;;2.00;;
36283;SDS011;56085;48.910;9.478;2023-06-24T13:47:53;3.17;;;1.73;;
36283;SDS011;56085;48.910;9.478;2023-06-24T13:50:21;3.50;;;2.30;;
36283;SDS011;56085;48.910;9.478;2023-06-24T13:52:46;3.03;;;1.92;;
36283;SDS011;56085;48.910;9.478;2023-06-24T13:55:11;3.27;;;2.20;;
36283;SDS011;56085;48.910;9.478;2023-06-24T13:57:37;3.00;;;1.97;;
36283;SDS011;56085;48.910;9.478;2023-06-24T14:00:02;4.13;;;2.25;;
36283;SDS011;56085;48.910;9.478;2023-06-24T14:02:28;3.03;;;1.88;;
36283;SDS011;56085;48.910;9.478;2023-06-24T14:04:53;5.37;;;1.83;;
36283;SDS011;56085;48.910;9.478;2023-06-24T14:07:19;3.47;;;2.00;;
36283;SDS011;56085;48.910;9.478;2023-06-24T14:09:44;4.60;;;1.93;;
36283;SDS011;56085;48.910;9.478;2023-06-24T14:12:09;3.23;;;1.83;;
36283;SDS011;56085;48.910;9.478;2023-06-24T14:14:35;2.90;;;1.70;;
36283;SDS011;56085;48.910;9.478;2023-06-24T14:17:04;3.08;;;1.80;;
36283;SDS011;56085;48.910;9.478;2023-06-24T14:19:34;3.97;;;2.00;;
36283;SDS011;56085;48.910;9.478;2023-06-24T14:22:00;3.15;;;1.90;;
36283;SDS011;56085;48.910;9.478;2023-06-24T14:24:26;3.22;;;1.95;;
36283;SDS011;56085;48.910;9.478;2023-06-24T14:26:51;2.87;;;2.13;;
36283;SDS011;56085;48.910;9.478;2023-06-24T14:29:17;2.80;;;1.90;;
36283;SDS011;56085;48.910;9.478;2023-06-24T14:31:42;3.85;;;1.77;;
36283;SDS011;56085;48.910;9.478;2023-06-24T14:34:08;3.00;;;1.95;;
36283;SDS011;56085;48.910;9.478;2023-06-24T14:36:33;3.30;;;2.10;;
36283;SDS011;56085;48.910;9.478;2023-06-24T14:38:58;2.35;;;1.75;;
36283;SDS011;56085;48.910;9.478;2023-06-24T14:41:24;4.87;;;1.67;;
36283;SDS011;56085;48.910;9.478;2023-06-24T14:43:49;2.10;;;1.77;;
36283;SDS011;56085;48.910;9.478;2023-06-24T14:46:15;3.27;;;1.80;;
36283;SDS011;56085;48.910;9.478;2023-06-24T14:48:40;2.45;;;1.90;;
36283;SDS011;56085;48.910;9.478;2023-06-24T14:51:05;2.30;;;1.60;;
36283;SDS011;56085;48.910;9.478;2023-06-24T14:58:22;3.20;;;2.00;;
36283;SDS011;56085;48.910;9.478;2023-06-24T15:00:47;3.60;;;2.20;;
36283;SDS011;56085;48.910;9.478;2023-06-24T15:03:12;3.03;;;2.08;;
36283;SDS011;56085;48.910;9.478;2023-06-24T15:05:38;2.08;;;1.52;;
36283;SDS011;56085;48.910;9.478;2023-06-24T15:08:04;2.75;;;1.65;;
36283;SDS011;56085;48.910;9.478;2023-06-24T15:10:29;2.67;;;1.75;;